Time;durP1;ratioP1;P1;durP2;ratioP2;P2;SDS_P1;SDS_P2;PMS_P1;PMS_P2;Temp;Humidity;BMP_temperature;BMP_pressure;BME280_temperature;BME280_humidity;BME280_pressure;Samples;Min_cycle;Max_cycle;Signal;HPM_P1;HPM_P2
2021/05/12 00:01:08;;;;;;;15.07;11.60;;;14.60;99.90;;;;;;5075340;28;20487;-78
2021/05/12 00:03:35;;;;;;;13.40;11.60;;;14.60;99.90;;;;;;5075827;28;20460;-78
2021/05/12 00:06:02;;;;;;;13.93;12.57;;;14.60;99.90;;;;;;5083953;28;20489;-79
2021/05/12 00:08:29;;;;;;;16.80;11.03;;;14.60;99.90;;;;;;5072305;28;20459;-78
2021/05/12 00:10:56;;;;;;;14.47;11.37;;;14.60;99.90;;;;;;5074005;28;20575;-78
2021/05/12 00:13:23;;;;;;;19.03;12.50;;;14.60;99.90;;;;;;5076396;28;20448;-79
2021/05/12 00:15:49;;;;;;;15.23;11.27;;;14.60;99.90;;;;;;5084985;28;20474;-79
2021/05/12 00:18:19;;;;;;;13.13;11.90;;;14.60;99.90;;;;;;5068227;28;20463;-79
2021/05/12 00:20:46;;;;;;;14.90;13.40;;;14.60;99.90;;;;;;5074820;28;20483;-79
2021/05/12 00:23:15;;;;;;;13.57;11.30;;;14.60;99.90;;;;;;5076038;28;21148;-79
2021/05/12 00:25:42;;;;;;;12.37;11.17;;;14.60;99.90;;;;;;5076286;28;20490;-80
2021/05/12 00:28:08;;;;;;;14.27;11.30;;;14.60;99.90;;;;;;5078647;28;20489;-78
2021/05/12 00:30:35;;;;;;;15.97;11.40;;;14.60;99.90;;;;;;5079456;28;20491;-78
2021/05/12 00:33:01;;;;;;;15.77;11.60;;;14.60;99.90;;;;;;5073776;28;20962;-80
2021/05/12 00:35:28;;;;;;;14.37;11.50;;;14.60;99.90;;;;;;5074686;28;20806;-79
2021/05/12 00:37:54;;;;;;;11.33;10.13;;;14.60;99.90;;;;;;5074227;28;20455;-79
2021/05/12 00:40:21;;;;;;;13.27;11.97;;;14.50;99.90;;;;;;5074975;28;20535;-78
2021/05/12 00:42:48;;;;;;;12.80;11.13;;;14.60;99.90;;;;;;5076545;28;20498;-78
2021/05/12 00:45:16;;;;;;;20.27;12.70;;;14.50;99.90;;;;;;5075418;28;20881;-78
2021/05/12 00:47:48;;;;;;;16.37;12.67;;;14.50;99.90;;;;;;5077796;28;20458;-79
2021/05/12 00:50:15;;;;;;;15.07;11.73;;;14.50;99.90;;;;;;5070165;28;21168;-78
2021/05/12 00:52:42;;;;;;;13.40;12.00;;;14.50;99.90;;;;;;5078673;28;20464;-77
2021/05/12 00:55:09;;;;;;;16.50;12.00;;;14.50;99.90;;;;;;5080385;28;20458;-77
2021/05/12 00:57:35;;;;;;;16.60;13.30;;;14.50;99.90;;;;;;5071265;28;20462;-78
2021/05/12 01:00:06;;;;;;;17.20;12.63;;;14.60;99.90;;;;;;5076131;28;20460;-79
2021/05/12 01:02:33;;;;;;;16.10;13.40;;;14.60;99.90;;;;;;5071959;28;20498;-79
2021/05/12 01:04:59;;;;;;;13.87;12.10;;;14.60;99.90;;;;;;5073922;28;20461;-79
2021/05/12 01:07:26;;;;;;;17.93;13.30;;;14.60;99.90;;;;;;5069659;28;20473;-78
2021/05/12 01:09:52;;;;;;;18.50;13.87;;;14.60;99.90;;;;;;5080594;28;20461;-78
2021/05/12 01:12:19;;;;;;;18.13;12.83;;;14.60;99.90;;;;;;5070687;28;20471;-78
2021/05/12 01:14:46;;;;;;;15.90;12.90;;;14.60;99.90;;;;;;5071530;28;20484;-79
2021/05/12 01:17:14;;;;;;;19.27;12.63;;;14.60;99.90;;;;;;5079708;28;20548;-78
2021/05/12 01:19:41;;;;;;;16.53;13.50;;;14.60;99.90;;;;;;5073980;28;20484;-79
2021/05/12 01:22:09;;;;;;;17.93;12.87;;;14.60;99.90;;;;;;5074554;28;20512;-79
2021/05/12 01:24:36;;;;;;;17.93;11.73;;;14.70;99.90;;;;;;5074065;28;20861;-78
2021/05/12 01:27:03;;;;;;;14.07;12.43;;;14.70;99.90;;;;;;5074308;28;20951;-79
2021/05/12 01:29:30;;;;;;;14.97;12.73;;;14.70;99.90;;;;;;5072901;28;20461;-79
2021/05/12 01:31:57;;;;;;;14.80;12.87;;;14.70;99.90;;;;;;5075724;28;20447;-79
2021/05/12 01:34:23;;;;;;;18.20;13.30;;;14.70;99.90;;;;;;5074607;28;20786;-78
2021/05/12 01:36:51;;;;;;;15.90;12.17;;;14.70;99.90;;;;;;5073988;28;20452;-77
2021/05/12 01:39:18;;;;;;;15.90;13.03;;;14.60;99.90;;;;;;5075190;28;20483;-78
2021/05/12 01:41:45;;;;;;;22.10;13.43;;;14.60;99.90;;;;;;5073250;28;20492;-78
2021/05/12 01:44:12;;;;;;;17.57;12.43;;;14.50;99.90;;;;;;5076961;28;20465;-78
2021/05/12 01:46:40;;;;;;;13.40;11.67;;;14.50;99.90;;;;;;5079890;28;20508;-77
2021/05/12 01:49:07;;;;;;;14.60;10.60;;;14.50;99.90;;;;;;5075379;28;20451;-79
2021/05/12 01:51:33;;;;;;;15.03;12.43;;;14.50;99.90;;;;;;5075968;28;20813;-78
2021/05/12 01:54:00;;;;;;;13.17;11.50;;;14.60;99.90;;;;;;5077316;28;20558;-79
2021/05/12 01:56:27;;;;;;;14.30;11.90;;;14.60;99.90;;;;;;5072563;28;20530;-78
2021/05/12 01:58:54;;;;;;;14.60;13.13;;;14.60;99.90;;;;;;5067347;28;20463;-79
2021/05/12 02:01:20;;;;;;;15.33;11.37;;;14.50;99.90;;;;;;5075979;28;20486;-79
2021/05/12 02:03:47;;;;;;;15.10;12.53;;;14.60;99.90;;;;;;5074407;28;20775;-78
2021/05/12 02:06:13;;;;;;;15.13;12.70;;;14.50;99.90;;;;;;5069783;28;20545;-79
2021/05/12 02:08:40;;;;;;;16.47;12.80;;;14.60;99.90;;;;;;5076028;28;21100;-78
2021/05/12 02:11:07;;;;;;;14.90;11.40;;;14.60;99.90;;;;;;5072884;28;20545;-78
2021/05/12 02:13:34;;;;;;;15.23;11.53;;;14.50;99.90;;;;;;5066637;28;20487;-78
2021/05/12 02:16:03;;;;;;;12.33;11.00;;;14.60;99.90;;;;;;5071356;28;20477;-78
2021/05/12 02:18:29;;;;;;;21.07;11.03;;;14.60;99.90;;;;;;5069146;28;20554;-78
2021/05/12 02:20:56;;;;;;;14.10;11.90;;;14.60;99.90;;;;;;5073999;28;20455;-77
2021/05/12 02:23:25;;;;;;;12.63;10.40;;;14.60;99.90;;;;;;5077087;28;20542;-79
2021/05/12 02:25:51;;;;;;;13.23;10.17;;;14.60;99.90;;;;;;5073681;28;21196;-79
2021/05/12 02:28:17;;;;;;;11.70;9.77;;;14.60;99.90;;;;;;5076897;28;21158;-79
2021/05/12 02:30:45;;;;;;;13.00;9.97;;;14.60;99.90;;;;;;5072085;28;20937;-79
2021/05/12 02:33:12;;;;;;;11.17;8.73;;;14.60;99.90;;;;;;5074368;28;20856;-78
2021/05/12 02:35:40;;;;;;;12.50;9.33;;;14.60;99.90;;;;;;5071388;28;20463;-79
2021/05/12 02:38:07;;;;;;;13.83;10.53;;;14.60;99.90;;;;;;5071403;28;20559;-80
2021/05/12 02:40:33;;;;;;;11.73;8.43;;;14.60;99.90;;;;;;5069625;28;20453;-79
2021/05/12 02:43:00;;;;;;;15.20;8.97;;;14.60;99.90;;;;;;5081514;28;20490;-79
2021/05/12 02:45:28;;;;;;;12.00;8.00;;;14.60;99.90;;;;;;5075318;28;20461;-79
2021/05/12 02:47:59;;;;;;;11.73;8.80;;;14.60;99.90;;;;;;5072614;28;20479;-79
2021/05/12 02:50:27;;;;;;;13.90;8.63;;;14.60;99.90;;;;;;5072793;28;21154;-78
2021/05/12 02:52:53;;;;;;;9.10;8.20;;;14.60;99.90;;;;;;5077190;28;20492;-79
2021/05/12 02:55:20;;;;;;;11.40;8.80;;;14.60;99.90;;;;;;5074557;28;20466;-79
2021/05/12 02:57:47;;;;;;;11.63;8.60;;;14.60;99.90;;;;;;5074017;28;20497;-79
2021/05/12 03:00:16;;;;;;;9.97;8.90;;;14.60;99.90;;;;;;5076832;28;20447;-78
2021/05/12 03:02:42;;;;;;;9.63;8.13;;;14.50;99.90;;;;;;5069021;28;20523;-79
2021/05/12 03:05:11;;;;;;;9.40;8.40;;;14.50;99.90;;;;;;5072859;28;20845;-78
2021/05/12 03:07:38;;;;;;;9.33;8.07;;;14.50;99.90;;;;;;5067458;28;20815;-78
2021/05/12 03:10:08;;;;;;;11.17;9.10;;;14.40;99.90;;;;;;5070089;28;20458;-78
2021/05/12 03:12:35;;;;;;;11.23;8.47;;;14.40;99.90;;;;;;5074604;28;20469;-79
2021/05/12 03:15:01;;;;;;;10.70;8.83;;;14.40;99.90;;;;;;5075396;28;20479;-79
2021/05/12 03:17:27;;;;;;;14.13;8.20;;;14.40;99.90;;;;;;5067837;28;20463;-79
2021/05/12 03:19:54;;;;;;;10.20;8.67;;;14.30;99.90;;;;;;5072591;28;20481;-78
2021/05/12 03:22:21;;;;;;;10.10;8.97;;;14.30;99.90;;;;;;5073635;28;20480;-79
2021/05/12 03:24:48;;;;;;;9.90;8.87;;;14.30;99.90;;;;;;5080622;28;20451;-79
2021/05/12 03:27:14;;;;;;;13.97;11.40;;;14.30;99.90;;;;;;5075795;28;20457;-79
2021/05/12 03:29:41;;;;;;;13.30;11.17;;;14.30;99.90;;;;;;5073444;28;20470;-80
2021/05/12 03:32:07;;;;;;;16.13;11.63;;;14.30;99.90;;;;;;5077570;28;20457;-78
2021/05/12 03:34:34;;;;;;;16.70;13.67;;;14.30;99.90;;;;;;5077893;28;20469;-78
2021/05/12 03:37:00;;;;;;;15.73;12.87;;;14.30;99.90;;;;;;5077379;28;20470;-79
2021/05/12 03:39:28;;;;;;;16.13;13.10;;;14.30;99.90;;;;;;5074794;28;20464;-78
2021/05/12 03:41:54;;;;;;;16.30;13.27;;;14.30;99.90;;;;;;5073643;28;20526;-79
2021/05/12 03:44:21;;;;;;;16.87;13.40;;;14.30;99.90;;;;;;5068431;28;21009;-79
2021/05/12 03:46:48;;;;;;;17.83;13.53;;;14.30;99.90;;;;;;5075462;28;20481;-79
2021/05/12 03:49:14;;;;;;;16.80;12.97;;;14.30;99.90;;;;;;5073552;28;20455;-77
2021/05/12 03:51:41;;;;;;;16.53;14.23;;;14.30;99.90;;;;;;5070814;28;20466;-78
2021/05/12 03:54:07;;;;;;;24.37;15.13;;;14.20;99.90;;;;;;5071471;28;20442;-79
2021/05/12 03:56:34;;;;;;;17.33;14.00;;;14.20;99.90;;;;;;5075044;28;20495;-79
2021/05/12 03:59:00;;;;;;;19.70;12.47;;;14.20;99.90;;;;;;5074870;28;20526;-79
2021/05/12 04:01:27;;;;;;;16.23;13.23;;;14.20;99.90;;;;;;5081358;28;20475;-78
2021/05/12 04:03:53;;;;;;;16.13;14.53;;;14.20;99.90;;;;;;5077885;28;20462;-79
2021/05/12 04:06:20;;;;;;;23.63;14.70;;;14.20;99.90;;;;;;5082610;28;21007;-79
2021/05/12 04:08:46;;;;;;;22.93;14.33;;;14.20;99.90;;;;;;5074598;28;20483;-79
2021/05/12 04:11:12;;;;;;;18.17;14.40;;;14.20;99.90;;;;;;5078114;28;20984;-79
2021/05/12 04:13:40;;;;;;;21.90;15.20;;;14.20;99.90;;;;;;5074529;28;20472;-80
2021/05/12 04:16:06;;;;;;;16.70;14.60;;;14.20;99.90;;;;;;5069931;28;20459;-79
2021/05/12 04:18:33;;;;;;;20.07;13.73;;;14.20;99.90;;;;;;5075170;28;20452;-79
2021/05/12 04:20:59;;;;;;;16.10;13.60;;;14.20;99.90;;;;;;5074949;28;20950;-80
2021/05/12 04:23:26;;;;;;;15.83;14.13;;;14.20;99.90;;;;;;5070639;28;20489;-78
2021/05/12 04:25:52;;;;;;;16.70;14.00;;;14.20;99.90;;;;;;5075812;28;20934;-79
2021/05/12 04:28:18;;;;;;;20.13;15.63;;;14.20;99.90;;;;;;5075578;28;20470;-79
2021/05/12 04:30:46;;;;;;;19.83;14.60;;;14.20;99.90;;;;;;5077314;28;20481;-78
2021/05/12 04:33:12;;;;;;;21.70;14.73;;;14.20;99.90;;;;;;5076952;28;20543;-79
2021/05/12 04:35:38;;;;;;;21.57;14.87;;;14.20;99.90;;;;;;5074754;28;20525;-80
2021/05/12 04:38:05;;;;;;;20.07;14.47;;;14.20;99.90;;;;;;5078086;28;20470;-79
2021/05/12 04:40:31;;;;;;;15.90;13.37;;;14.20;99.90;;;;;;5077668;28;20516;-79
2021/05/12 04:42:58;;;;;;;18.83;14.90;;;14.20;99.90;;;;;;5071003;28;20496;-78
2021/05/12 04:45:24;;;;;;;19.40;15.00;;;14.20;99.90;;;;;;5074017;28;20480;-79
2021/05/12 04:47:57;;;;;;;19.13;14.10;;;14.30;99.90;;;;;;5077069;28;20569;-79
2021/05/12 04:50:26;;;;;;;21.23;14.90;;;14.30;99.90;;;;;;5073003;28;20457;-78
2021/05/12 04:52:53;;;;;;;15.37;12.87;;;14.30;99.90;;;;;;5076366;28;21344;-79
2021/05/12 04:55:19;;;;;;;17.10;13.77;;;14.30;99.90;;;;;;5073207;28;20475;-79
2021/05/12 04:57:45;;;;;;;17.10;13.73;;;14.30;99.90;;;;;;5073730;28;20459;-80
2021/05/12 05:00:14;;;;;;;18.60;13.77;;;14.40;99.90;;;;;;5075008;28;20494;-78
2021/05/12 05:02:41;;;;;;;17.73;12.90;;;14.40;99.90;;;;;;5074770;28;20528;-79
2021/05/12 05:05:11;;;;;;;14.07;12.20;;;14.40;99.90;;;;;;5072391;28;20455;-79
2021/05/12 05:07:38;;;;;;;15.33;12.00;;;14.40;99.90;;;;;;5070373;28;20806;-79
2021/05/12 05:10:06;;;;;;;14.93;12.33;;;14.40;99.90;;;;;;5067202;28;20462;-79
2021/05/12 05:12:33;;;;;;;15.40;12.40;;;14.40;99.90;;;;;;5074436;28;20465;-78
2021/05/12 05:14:59;;;;;;;16.27;12.43;;;14.50;99.90;;;;;;5076013;28;20501;-79
2021/05/12 05:17:26;;;;;;;16.43;12.73;;;14.50;99.90;;;;;;5079142;28;20459;-79
2021/05/12 05:19:53;;;;;;;15.77;12.37;;;14.50;99.90;;;;;;5070431;28;20502;-79
2021/05/12 05:22:21;;;;;;;14.50;11.67;;;14.50;99.90;;;;;;5065365;28;20560;-78
2021/05/12 05:24:48;;;;;;;14.77;10.90;;;14.50;99.90;;;;;;5072826;28;20510;-78
2021/05/12 05:27:14;;;;;;;17.00;12.03;;;14.50;99.90;;;;;;5072395;28;20547;-79
2021/05/12 05:29:41;;;;;;;15.33;11.70;;;14.50;99.90;;;;;;5076828;28;20469;-79
2021/05/12 05:32:07;;;;;;;11.90;10.10;;;14.50;99.90;;;;;;5076679;28;21023;-78
2021/05/12 05:34:34;;;;;;;11.40;9.77;;;14.50;99.90;;;;;;5068341;28;20457;-79
2021/05/12 05:37:00;;;;;;;12.20;10.40;;;14.50;99.90;;;;;;5075233;28;20542;-78
2021/05/12 05:39:35;;;;;;;13.07;10.13;;;14.50;99.90;;;;;;5066465;28;21117;-78
2021/05/12 05:42:01;;;;;;;12.53;10.07;;;14.40;99.90;;;;;;5076824;28;20986;-78
2021/05/12 05:44:28;;;;;;;13.40;10.50;;;14.40;99.90;;;;;;5071249;28;21435;-80
2021/05/12 05:46:55;;;;;;;15.93;10.40;;;14.40;99.90;;;;;;5075396;28;20464;-79
2021/05/12 05:49:22;;;;;;;29.00;17.90;;;14.50;99.90;;;;;;5074725;28;20466;-79
2021/05/12 05:51:48;;;;;;;20.67;11.83;;;14.40;99.90;;;;;;5070489;28;20484;-79
2021/05/12 05:54:14;;;;;;;15.47;11.00;;;14.40;99.90;;;;;;5071237;28;20457;-81
2021/05/12 05:56:42;;;;;;;12.30;9.67;;;14.40;99.90;;;;;;5067225;28;20475;-78
2021/05/12 05:59:08;;;;;;;14.63;9.17;;;14.40;99.90;;;;;;5065971;28;20470;-78
2021/05/12 06:01:34;;;;;;;17.33;8.90;;;14.40;99.90;;;;;;5057735;28;20483;-80
2021/05/12 06:04:01;;;;;;;13.07;7.40;;;14.40;99.90;;;;;;5064736;28;20470;-79
2021/05/12 06:06:27;;;;;;;11.20;6.90;;;14.40;99.90;;;;;;5068363;28;20828;-79
2021/05/12 06:08:54;;;;;;;13.27;6.73;;;14.40;99.90;;;;;;5066994;28;20780;-78
2021/05/12 06:11:20;;;;;;;8.87;5.77;;;14.50;99.90;;;;;;5069756;28;20465;-78
2021/05/12 06:13:49;;;;;;;9.33;6.30;;;14.50;99.90;;;;;;5063728;28;20930;-78
2021/05/12 06:16:17;;;;;;;8.93;6.97;;;14.50;99.90;;;;;;5065120;28;20451;-78
2021/05/12 06:18:44;;;;;;;8.40;6.50;;;14.50;99.90;;;;;;5062772;28;20453;-79
2021/05/12 06:21:10;;;;;;;10.30;7.60;;;14.50;99.90;;;;;;5067576;28;20499;-79
2021/05/12 06:23:37;;;;;;;9.53;6.23;;;14.50;99.90;;;;;;5064832;28;20489;-79
2021/05/12 06:26:05;;;;;;;8.33;6.40;;;14.50;99.90;;;;;;5065678;28;20459;-80
2021/05/12 06:28:31;;;;;;;9.67;6.30;;;14.50;99.90;;;;;;5066590;28;20526;-78
2021/05/12 06:30:58;;;;;;;10.93;6.87;;;14.60;99.90;;;;;;5065656;28;20467;-79
2021/05/12 06:33:28;;;;;;;8.10;7.00;;;14.60;99.90;;;;;;5061492;28;21167;-80
2021/05/12 06:35:55;;;;;;;11.63;6.67;;;14.60;99.90;;;;;;5072586;28;20465;-80
2021/05/12 06:38:21;;;;;;;9.27;5.70;;;14.60;99.90;;;;;;5061971;28;20489;-80
2021/05/12 06:40:47;;;;;;;8.30;6.10;;;14.60;99.90;;;;;;5066518;28;20497;-79
2021/05/12 06:43:14;;;;;;;7.27;5.63;;;14.70;99.90;;;;;;5064256;28;20490;-79
2021/05/12 06:45:40;;;;;;;10.00;6.67;;;14.70;99.90;;;;;;5065924;28;20536;-78
2021/05/12 06:48:08;;;;;;;14.73;8.30;;;14.70;99.90;;;;;;5075960;28;20852;-79
2021/05/12 06:50:35;;;;;;;16.23;7.00;;;14.80;99.90;;;;;;5069424;28;20463;-79
2021/05/12 06:53:01;;;;;;;10.17;7.03;;;14.80;99.90;;;;;;5069195;28;20563;-81
2021/05/12 06:55:28;;;;;;;8.87;6.40;;;14.80;99.90;;;;;;5070274;28;20464;-79
2021/05/12 06:57:54;;;;;;;9.33;6.97;;;14.90;99.90;;;;;;5070576;28;20983;-80
2021/05/12 07:00:21;;;;;;;8.23;7.20;;;14.90;99.90;;;;;;5074300;28;20472;-80
2021/05/12 07:02:48;;;;;;;9.37;7.07;;;15.00;99.90;;;;;;5070598;28;20490;-79
2021/05/12 07:05:16;;;;;;;8.00;7.00;;;15.00;99.90;;;;;;5067793;28;20456;-79
2021/05/12 07:07:42;;;;;;;10.53;7.43;;;15.10;99.90;;;;;;5070397;28;20468;-80
2021/05/12 07:10:10;;;;;;;13.93;7.40;;;15.10;99.90;;;;;;5072504;28;20484;-79
2021/05/12 07:12:37;;;;;;;15.23;7.50;;;15.10;99.90;;;;;;5071622;28;20460;-80
2021/05/12 07:15:04;;;;;;;8.40;6.73;;;15.20;99.90;;;;;;5067278;28;20485;-81
2021/05/12 07:17:30;;;;;;;11.27;7.70;;;15.20;99.90;;;;;;5071773;28;20460;-80
2021/05/12 07:19:56;;;;;;;11.17;8.07;;;15.30;99.90;;;;;;5070656;28;20481;-80
2021/05/12 07:22:24;;;;;;;10.03;7.60;;;15.40;99.90;;;;;;5071056;28;20515;-81
2021/05/12 07:24:50;;;;;;;13.50;8.50;;;15.40;99.90;;;;;;5073033;28;20459;-83
2021/05/12 07:27:17;;;;;;;15.10;9.43;;;15.50;99.90;;;;;;5071064;28;20472;-81
2021/05/12 07:29:44;;;;;;;10.03;7.73;;;15.50;99.90;;;;;;5070014;28;20472;-81
2021/05/12 07:32:10;;;;;;;16.23;8.20;;;15.60;99.90;;;;;;5075750;28;20571;-81
2021/05/12 07:34:37;;;;;;;13.97;8.43;;;15.60;99.90;;;;;;5074533;28;20464;-81
2021/05/12 07:37:03;;;;;;;13.20;8.10;;;15.70;99.90;;;;;;5068444;28;20470;-82
2021/05/12 07:39:31;;;;;;;10.03;7.60;;;15.70;99.90;;;;;;5070664;28;20456;-82
2021/05/12 07:42:01;;;;;;;11.60;7.50;;;15.70;99.90;;;;;;5071028;28;20884;-82
2021/05/12 07:44:28;;;;;;;10.40;8.50;;;15.80;99.90;;;;;;5067229;28;20457;-83
2021/05/12 07:46:54;;;;;;;13.13;8.90;;;15.80;99.90;;;;;;5069841;28;20453;-82
2021/05/12 07:49:21;;;;;;;11.00;9.13;;;15.90;99.90;;;;;;5070322;28;20457;-81
2021/05/12 07:51:47;;;;;;;10.60;7.83;;;15.90;99.90;;;;;;5073455;28;20469;-82
2021/05/12 07:54:13;;;;;;;10.43;9.33;;;16.00;99.90;;;;;;5067016;28;20969;-81
2021/05/12 07:56:41;;;;;;;10.13;8.53;;;16.10;99.90;;;;;;5072900;28;20464;-81
2021/05/12 07:59:07;;;;;;;16.80;7.70;;;16.10;99.90;;;;;;5067206;28;21106;-82
2021/05/12 08:01:38;;;;;;;11.77;9.50;;;16.20;99.90;;;;;;5070211;28;20869;-82
2021/05/12 08:04:05;;;;;;;9.33;8.30;;;16.30;99.90;;;;;;5069337;28;20481;-81
2021/05/12 08:06:31;;;;;;;13.07;8.50;;;16.40;99.90;;;;;;5065106;28;20466;-81
2021/05/12 08:08:58;;;;;;;10.13;9.13;;;16.50;99.90;;;;;;5071894;28;20532;-81
2021/05/12 08:11:27;;;;;;;14.77;10.23;;;16.50;99.90;;;;;;5070837;28;20462;-81
2021/05/12 08:13:55;;;;;;;9.83;8.63;;;16.60;99.90;;;;;;5065176;28;20457;-81
2021/05/12 08:16:22;;;;;;;12.00;9.57;;;16.70;99.90;;;;;;5070521;28;20458;-82
2021/05/12 08:18:48;;;;;;;14.33;9.20;;;16.80;99.90;;;;;;5071926;28;20461;-82
2021/05/12 08:21:14;;;;;;;9.73;8.77;;;17.00;99.90;;;;;;5065913;28;20555;-81
2021/05/12 08:23:41;;;;;;;10.57;8.37;;;17.10;99.90;;;;;;5071283;28;21006;-82
2021/05/12 08:26:09;;;;;;;10.37;8.23;;;17.10;99.90;;;;;;5071014;28;20485;-83
2021/05/12 08:28:35;;;;;;;10.27;9.17;;;17.20;99.90;;;;;;5068233;28;20459;-81
2021/05/12 08:31:03;;;;;;;11.93;9.80;;;17.20;99.90;;;;;;5069365;28;20463;-80
2021/05/12 08:33:29;;;;;;;16.00;13.43;;;17.40;99.90;;;;;;5067731;28;20455;-83
2021/05/12 08:35:55;;;;;;;12.60;10.10;;;17.40;99.90;;;;;;5071589;28;20578;-82
2021/05/12 08:38:24;;;;;;;12.43;8.80;;;17.40;99.90;;;;;;5065120;28;20479;-81
2021/05/12 08:40:53;;;;;;;12.20;7.70;;;17.40;99.90;;;;;;5072488;28;20458;-81
2021/05/12 08:43:20;;;;;;;10.90;8.87;;;17.40;99.90;;;;;;5071104;28;20501;-80
2021/05/12 08:45:47;;;;;;;10.77;9.20;;;17.60;99.90;;;;;;5067407;28;20977;-80
2021/05/12 08:48:16;;;;;;;8.77;7.13;;;17.70;99.90;;;;;;5069224;28;20467;-82
2021/05/12 08:50:43;;;;;;;12.13;8.13;;;17.90;99.90;;;;;;5068704;28;20472;-82
2021/05/12 08:53:10;;;;;;;13.67;7.30;;;18.00;99.90;;;;;;5072259;28;20561;-81
2021/05/12 08:55:37;;;;;;;10.57;9.47;;;18.00;99.90;;;;;;5071064;28;20471;-81
2021/05/12 08:58:04;;;;;;;10.50;8.20;;;18.00;99.90;;;;;;5065985;28;20956;-80
2021/05/12 09:00:30;;;;;;;9.30;6.50;;;18.10;99.90;;;;;;5070808;28;20550;-81
2021/05/12 09:02:59;;;;;;;12.47;7.33;;;18.10;99.90;;;;;;5062666;28;20487;-82
2021/05/12 09:05:28;;;;;;;10.00;6.40;;;18.30;99.90;;;;;;5066969;28;20563;-81
2021/05/12 09:07:55;;;;;;;9.50;7.50;;;18.40;99.90;;;;;;5062128;28;21070;-83
2021/05/12 09:10:22;;;;;;;9.57;6.90;;;18.60;99.90;;;;;;5073155;28;20916;-83
2021/05/12 09:12:51;;;;;;;11.20;7.93;;;18.70;99.90;;;;;;5070905;28;20547;-83
2021/05/12 09:15:20;;;;;;;10.87;7.70;;;18.80;99.90;;;;;;5070304;28;20523;-84
2021/05/12 09:17:48;;;;;;;10.43;7.03;;;18.90;99.90;;;;;;5067577;28;21294;-83
2021/05/12 09:20:39;;;;;;;9.27;6.70;;;19.00;99.90;;;;;;5073718;28;20575;-82
2021/05/12 09:23:09;;;;;;;12.37;6.13;;;19.10;99.90;;;;;;5069837;28;20476;-87
2021/05/12 09:25:38;;;;;;;10.00;7.30;;;19.20;99.90;;;;;;5070681;28;20457;-83
2021/05/12 09:28:15;;;;;;;8.63;7.70;;;19.30;99.90;;;;;;5070019;28;20457;-86
2021/05/12 09:30:43;;;;;;;8.63;7.80;;;19.40;99.90;;;;;;5072852;28;21083;-83
2021/05/12 09:33:17;;;;;;;12.73;7.90;;;19.50;99.90;;;;;;5077776;28;20518;-85
2021/05/12 09:35:45;;;;;;;9.27;6.60;;;19.60;99.90;;;;;;5071735;28;20559;-83
2021/05/12 09:38:21;;;;;;;6.50;5.97;;;19.50;99.90;;;;;;5073066;28;20454;-83
2021/05/12 09:41:00;;;;;;;7.23;6.53;;;19.50;99.90;;;;;;5071047;28;20540;-83
2021/05/12 09:43:28;;;;;;;7.50;6.43;;;19.70;99.90;;;;;;5067898;28;20496;-87
2021/05/12 09:45:54;;;;;;;8.43;7.70;;;19.90;99.90;;;;;;5062191;28;20798;-83
2021/05/12 09:48:21;;;;;;;10.20;8.27;;;20.10;99.90;;;;;;5068543;28;20462;-85
2021/05/12 09:50:48;;;;;;;5.30;4.80;;;20.20;99.90;;;;;;5065709;28;20459;-80
2021/05/12 09:53:15;;;;;;;6.57;5.13;;;20.30;99.90;;;;;;5065734;28;20471;-82
2021/05/12 09:55:44;;;;;;;6.50;5.90;;;20.20;99.90;;;;;;5064218;28;20468;-81
2021/05/12 09:58:11;;;;;;;7.80;5.90;;;20.10;99.90;;;;;;5067268;28;20454;-82
2021/05/12 10:00:39;;;;;;;11.23;7.13;;;19.90;99.90;;;;;;5069234;28;20465;-81
2021/05/12 10:03:09;;;;;;;5.37;4.87;;;19.90;99.90;;;;;;5063443;28;20505;-81
2021/05/12 10:05:53;;;;;;;7.47;5.30;;;20.00;99.90;;;;;;5072376;28;20555;-80
2021/05/12 10:08:24;;;;;;;11.47;5.50;;;20.00;99.90;;;;;;5059976;28;20462;-80
2021/05/12 10:10:54;;;;;;;6.43;5.10;;;19.90;99.90;;;;;;5069616;28;20453;-83
2021/05/12 10:13:21;;;;;;;8.77;5.60;;;19.70;99.90;;;;;;5068204;28;20463;-81
2021/05/12 10:15:48;;;;;;;8.43;5.67;;;19.60;99.90;;;;;;5064977;28;20501;-81
2021/05/12 10:18:14;;;;;;;11.60;5.40;;;19.70;99.90;;;;;;5066862;28;20521;-82
2021/05/12 10:20:41;;;;;;;6.87;4.83;;;19.60;99.90;;;;;;5068408;28;20493;-81
2021/05/12 10:23:08;;;;;;;8.20;5.13;;;19.50;99.90;;;;;;5068319;28;20496;-83
2021/05/12 10:25:37;;;;;;;5.13;4.63;;;19.40;99.70;;;;;;5066964;28;20531;-81
2021/05/12 10:28:05;;;;;;;6.07;5.47;;;19.40;98.20;;;;;;5066385;28;20588;-81
2021/05/12 10:30:31;;;;;;;6.20;5.60;;;19.60;98.50;;;;;;5064257;28;20452;-83
2021/05/12 10:32:59;;;;;;;7.30;6.60;;;19.60;98.60;;;;;;5070923;28;20467;-81
2021/05/12 10:35:33;;;;;;;6.57;5.67;;;19.50;99.10;;;;;;5067658;28;20961;-81
2021/05/12 10:38:00;;;;;;;6.80;6.10;;;19.40;99.70;;;;;;5068633;28;20586;-80
2021/05/12 10:40:29;;;;;;;5.73;5.23;;;19.50;99.90;;;;;;5066569;28;20473;-83
2021/05/12 10:43:10;;;;;;;5.80;5.17;;;19.70;99.80;;;;;;5067495;28;20485;-81
2021/05/12 10:45:57;;;;;;;5.13;4.63;;;19.90;99.90;;;;;;5074232;28;21099;-80
2021/05/12 10:48:38;;;;;;;6.47;4.70;;;20.20;99.60;;;;;;5065295;28;20964;-81
2021/05/12 10:51:06;;;;;;;5.20;4.63;;;20.40;98.90;;;;;;5070476;28;20466;-81
2021/05/12 10:53:34;;;;;;;5.33;4.90;;;20.50;98.10;;;;;;5067143;28;20543;-81
2021/05/12 10:56:08;;;;;;;7.87;5.30;;;20.50;98.00;;;;;;5068365;28;20973;-80
2021/05/12 10:58:55;;;;;;;5.97;4.60;;;20.30;98.30;;;;;;5063819;28;20841;-81
2021/05/12 11:01:22;;;;;;;8.67;3.97;;;20.40;98.40;;;;;;5068419;28;20490;-81
2021/05/12 11:04:18;;;;;;;4.50;3.43;;;20.60;98.90;;;;;;5062872;28;20692;-82
2021/05/12 11:06:59;;;;;;;4.23;3.83;;;20.70;97.60;;;;;;5062104;28;20474;-81
2021/05/12 11:09:40;;;;;;;3.90;3.50;;;20.70;97.70;;;;;;5069147;28;20506;-81
2021/05/12 11:12:09;;;;;;;5.60;3.60;;;20.80;97.80;;;;;;5061733;28;20467;-81
2021/05/12 11:14:36;;;;;;;5.50;4.43;;;20.70;97.90;;;;;;5063988;28;20829;-83
2021/05/12 11:17:04;;;;;;;6.70;4.93;;;20.60;97.80;;;;;;5068052;28;20972;-83
2021/05/12 11:19:38;;;;;;;4.03;3.20;;;20.50;97.70;;;;;;5068740;28;20539;-82
2021/05/12 11:22:36;;;;;;;4.50;3.80;;;20.60;97.50;;;;;;5064112;28;20976;-80
2021/05/12 11:25:07;;;;;;;10.43;3.30;;;20.60;96.00;;;;;;5074946;28;20957;-80
2021/05/12 11:28:11;;;;;;;6.23;3.90;;;20.70;96.30;;;;;;5070494;28;20471;-81
2021/05/12 11:33:25;;;;;;;6.53;3.57;;;20.90;95.90;;;;;;5064934;28;20961;-81
2021/05/12 11:35:57;;;;;;;5.10;3.40;;;21.20;96.90;;;;;;5067987;28;20463;-82
2021/05/12 11:38:23;;;;;;;8.37;3.27;;;21.40;96.90;;;;;;5063737;28;20462;-81
2021/05/12 11:41:13;;;;;;;4.73;3.27;;;21.60;96.60;;;;;;5067805;28;20465;-83
2021/05/12 11:43:42;;;;;;;4.37;2.90;;;21.60;95.10;;;;;;5069745;28;20535;-82
2021/05/12 11:46:11;;;;;;;5.70;3.23;;;21.70;94.70;;;;;;5068591;28;20526;-81
2021/05/12 11:48:39;;;;;;;4.13;3.33;;;21.70;94.70;;;;;;5066927;28;20450;-83
2021/05/12 11:51:06;;;;;;;3.50;3.20;;;21.70;94.40;;;;;;5077627;28;20563;-81
2021/05/12 11:53:35;;;;;;;4.70;2.30;;;21.90;93.40;;;;;;5068255;28;20962;-81
2021/05/12 11:56:02;;;;;;;4.60;2.60;;;22.00;93.50;;;;;;5068601;28;20553;-81
2021/05/12 11:58:29;;;;;;;3.60;2.93;;;22.10;93.20;;;;;;5069667;28;20466;-81
2021/05/12 12:01:04;;;;;;;3.67;2.90;;;22.10;93.60;;;;;;5077068;28;20449;-82
2021/05/12 12:03:31;;;;;;;5.27;2.70;;;21.90;93.40;;;;;;5059987;28;20545;-81
2021/05/12 12:06:03;;;;;;;5.07;3.07;;;21.90;94.10;;;;;;5069537;28;20494;-81
2021/05/12 12:08:30;;;;;;;3.33;2.47;;;21.90;94.10;;;;;;5072936;28;20868;-81
2021/05/12 12:11:08;;;;;;;4.13;2.87;;;22.00;92.40;;;;;;5072949;28;20465;-81
2021/05/12 12:13:36;;;;;;;3.43;2.67;;;22.10;91.40;;;;;;5070460;28;20455;-81
2021/05/12 12:16:03;;;;;;;3.60;2.13;;;22.10;92.60;;;;;;5064292;28;20635;-80
2021/05/12 12:18:32;;;;;;;3.50;2.30;;;22.20;91.20;;;;;;5075073;28;20459;-82
2021/05/12 12:20:59;;;;;;;6.60;3.20;;;22.30;91.70;;;;;;5065936;28;20517;-81
2021/05/12 12:23:29;;;;;;;5.67;2.80;;;22.30;90.50;;;;;;5072482;28;20989;-81
2021/05/12 12:26:14;;;;;;;6.83;3.20;;;22.30;89.90;;;;;;5064922;28;20461;-81
2021/05/12 12:28:43;;;;;;;5.80;2.40;;;22.30;90.40;;;;;;5069773;28;20458;-81
2021/05/12 12:31:12;;;;;;;5.17;2.27;;;22.30;90.40;;;;;;5067928;28;20478;-81
2021/05/12 12:33:39;;;;;;;5.50;1.63;;;22.20;90.40;;;;;;5066077;28;20542;-81
2021/05/12 12:36:07;;;;;;;5.13;1.90;;;22.00;90.60;;;;;;5071657;28;20884;-81
2021/05/12 12:38:34;;;;;;;3.33;1.77;;;21.80;90.10;;;;;;5070101;28;20504;-81
2021/05/12 12:41:01;;;;;;;3.13;2.17;;;21.60;90.40;;;;;;5071468;28;20485;-81
2021/05/12 12:43:38;;;;;;;1.97;1.80;;;21.40;90.50;;;;;;5068365;28;20485;-81